Time;durP1;ratioP1;P1;durP2;ratioP2;P2;SDS_P1;SDS_P2;PMS_P1;PMS_P2;Temp;Humidity;BMP_temperature;BMP_pressure;BME280_temperature;BME280_humidity;BME280_pressure;Samples;Min_cycle;Max_cycle;Signal;HPM_P1;HPM_P2
2021/09/09 00:01:45;;;;;;;12.27;7.60;;;;;;;17.34;100.00;100315.81;5045403;28;20075;-67
2021/09/09 00:04:14;;;;;;;13.68;8.38;;;;;;;17.23;100.00;100313.81;5051685;28;20396;-67
2021/09/09 00:06:43;;;;;;;16.00;8.63;;;;;;;17.29;100.00;100310.22;5049774;28;20506;-67
2021/09/09 00:09:10;;;;;;;14.38;8.77;;;;;;;17.21;100.00;100300.53;5046730;28;20036;-67
2021/09/09 00:11:39;;;;;;;14.10;8.98;;;;;;;17.13;100.00;100301.63;5045558;28;20037;-67
2021/09/09 00:14:09;;;;;;;13.57;8.52;;;;;;;17.11;100.00;100301.03;5047518;28;20076;-67
2021/09/09 00:16:40;;;;;;;16.42;9.02;;;;;;;17.07;100.00;100309.75;5047836;28;20041;-67
2021/09/09 00:19:08;;;;;;;15.20;8.23;;;;;;;17.04;100.00;100289.47;5048213;28;20321;-67
2021/09/09 00:21:36;;;;;;;13.98;7.90;;;;;;;16.98;100.00;100293.88;5046010;28;20037;-67
2021/09/09 00:24:06;;;;;;;15.57;8.15;;;;;;;16.89;100.00;100291.66;5049108;28;20114;-67
2021/09/09 00:26:33;;;;;;;16.70;8.82;;;;;;;16.89;100.00;100300.53;5046778;28;20053;-67
2021/09/09 00:29:01;;;;;;;14.20;8.27;;;;;;;16.79;100.00;100309.06;5047567;28;20044;-68
2021/09/09 00:31:29;;;;;;;14.35;7.82;;;;;;;16.78;100.00;100312.81;5047343;28;20036;-68
2021/09/09 00:33:57;;;;;;;10.82;7.65;;;;;;;16.66;100.00;100311.88;5046337;28;20049;-67
2021/09/09 00:36:25;;;;;;;15.65;8.32;;;;;;;16.53;100.00;100321.66;5045490;28;20087;-67
2021/09/09 00:38:53;;;;;;;13.75;8.05;;;;;;;16.39;100.00;100324.63;5044243;28;20416;-67
2021/09/09 00:41:23;;;;;;;15.40;8.10;;;;;;;16.29;100.00;100322.41;5046885;28;20053;-67
2021/09/09 00:43:51;;;;;;;15.18;9.05;;;;;;;16.26;100.00;100329.03;5050028;28;20500;-67
2021/09/09 00:46:22;;;;;;;12.98;8.15;;;;;;;16.22;100.00;100329.66;5050057;28;20048;-67
2021/09/09 00:48:51;;;;;;;16.67;9.02;;;;;;;16.23;100.00;100331.31;5052438;28;20045;-67
2021/09/09 00:51:20;;;;;;;14.45;8.50;;;;;;;16.24;100.00;100328.41;5041940;28;20420;-67
2021/09/09 00:53:48;;;;;;;16.33;9.07;;;;;;;16.38;100.00;100331.88;5051914;28;20045;-67
2021/09/09 00:56:16;;;;;;;13.80;8.93;;;;;;;16.45;100.00;100329.97;5051789;28;20040;-67
2021/09/09 00:58:46;;;;;;;15.85;8.77;;;;;;;16.54;100.00;100333.25;5046347;28;20447;-67
2021/09/09 01:01:14;;;;;;;14.70;8.48;;;;;;;16.54;100.00;100330.56;5048056;28;20385;-67
2021/09/09 01:03:42;;;;;;;20.33;9.18;;;;;;;16.52;100.00;100335.34;5045315;28;20047;-67
2021/09/09 01:06:10;;;;;;;15.82;8.25;;;;;;;16.66;100.00;100326.16;5044931;28;20044;-67
2021/09/09 01:08:38;;;;;;;14.48;8.63;;;;;;;16.70;100.00;100332.78;5050075;28;20092;-67
2021/09/09 01:11:07;;;;;;;15.70;8.98;;;;;;;16.90;100.00;100321.09;5046323;28;20349;-67
2021/09/09 01:13:34;;;;;;;18.08;8.32;;;;;;;16.73;100.00;100320.75;5045324;28;20033;-67
2021/09/09 01:16:06;;;;;;;16.23;9.32;;;;;;;16.78;100.00;100323.59;5047499;28;20044;-67
2021/09/09 01:18:34;;;;;;;15.55;8.80;;;;;;;16.93;100.00;100319.84;5045639;28;20044;-67
2021/09/09 01:21:02;;;;;;;17.80;9.15;;;;;;;16.99;100.00;100319.75;5044408;28;20045;-67
2021/09/09 01:23:30;;;;;;;13.13;7.93;;;;;;;16.92;100.00;100324.38;5047726;28;20048;-67
2021/09/09 01:25:59;;;;;;;15.68;8.40;;;;;;;16.73;100.00;100330.69;5047048;28;20279;-67
2021/09/09 01:28:27;;;;;;;14.23;8.52;;;;;;;16.67;100.00;100322.44;5046574;28;20053;-67
2021/09/09 01:30:56;;;;;;;14.70;9.18;;;;;;;16.63;100.00;100333.88;5041880;28;20103;-67
2021/09/09 01:33:24;;;;;;;12.98;7.97;;;;;;;16.47;100.00;100344.09;5044671;28;20044;-67
2021/09/09 01:35:52;;;;;;;17.10;8.40;;;;;;;16.28;100.00;100336.91;5049330;28;20053;-67
2021/09/09 01:38:20;;;;;;;14.50;8.43;;;;;;;16.52;100.00;100346.94;5046397;28;20049;-67
2021/09/09 01:40:48;;;;;;;14.40;8.02;;;;;;;16.71;100.00;100341.69;5045944;28;20102;-67
2021/09/09 01:43:18;;;;;;;15.73;8.65;;;;;;;16.62;100.00;100343.81;5046219;28;20147;-67
2021/09/09 01:45:45;;;;;;;15.02;8.43;;;;;;;16.50;100.00;100343.66;5046911;28;20038;-67
2021/09/09 01:48:14;;;;;;;14.57;7.93;;;;;;;16.65;100.00;100340.66;5049213;28;20056;-67
2021/09/09 01:50:41;;;;;;;17.25;8.88;;;;;;;16.71;100.00;100344.38;5043052;28;20149;-67
2021/09/09 01:53:09;;;;;;;11.43;7.00;;;;;;;16.56;100.00;100351.91;5042909;28;20090;-67
2021/09/09 01:55:37;;;;;;;14.48;7.80;;;;;;;16.74;100.00;100352.06;5046036;28;20433;-67
2021/09/09 01:58:05;;;;;;;13.85;7.60;;;;;;;16.79;100.00;100348.72;5045902;28;20464;-67
2021/09/09 02:00:34;;;;;;;12.50;7.43;;;;;;;16.89;100.00;100345.56;5047570;28;20091;-67
2021/09/09 02:03:02;;;;;;;13.95;7.70;;;;;;;17.02;100.00;100335.53;5047531;28;20377;-67
2021/09/09 02:05:30;;;;;;;15.18;8.10;;;;;;;17.06;100.00;100330.53;5047439;28;20049;-67
2021/09/09 02:07:58;;;;;;;13.50;8.00;;;;;;;16.99;100.00;100324.34;5047443;28;20045;-67
2021/09/09 02:10:26;;;;;;;14.18;9.00;;;;;;;16.69;100.00;100320.34;5041276;28;20090;-67
2021/09/09 02:12:55;;;;;;;15.05;7.28;;;;;;;16.56;100.00;100328.50;5045619;28;20437;-67
2021/09/09 02:15:23;;;;;;;12.20;7.68;;;;;;;16.44;100.00;100325.63;5042663;28;20477;-67
2021/09/09 02:17:53;;;;;;;12.52;7.68;;;;;;;16.73;100.00;100328.81;5048019;28;20368;-67
2021/09/09 02:20:20;;;;;;;14.70;9.07;;;;;;;16.83;100.00;100329.19;5053992;28;20436;-67
2021/09/09 02:22:48;;;;;;;20.50;9.25;;;;;;;16.87;100.00;100327.69;5051753;28;20037;-67
2021/09/09 02:25:16;;;;;;;16.77;8.27;;;;;;;16.65;100.00;100331.78;5052814;28;20045;-67
2021/09/09 02:27:44;;;;;;;15.75;8.50;;;;;;;16.53;100.00;100329.75;5053518;28;20319;-67
2021/09/09 02:30:12;;;;;;;14.15;9.00;;;;;;;16.55;100.00;100334.09;5052932;28;20045;-67
2021/09/09 02:32:40;;;;;;;11.80;8.20;;;;;;;16.67;100.00;100337.75;5048021;28;20044;-68
2021/09/09 02:35:10;;;;;;;17.00;8.30;;;;;;;16.83;100.00;100331.88;5052293;28;20372;-68
2021/09/09 02:37:38;;;;;;;16.27;8.75;;;;;;;16.81;100.00;100339.38;5053747;28;20574;-67
2021/09/09 02:40:08;;;;;;;16.92;8.15;;;;;;;16.78;100.00;100333.56;5051288;28;20578;-67
2021/09/09 02:42:37;;;;;;;13.27;8.18;;;;;;;16.66;100.00;100345.03;5051718;28;20060;-67
2021/09/09 02:45:06;;;;;;;16.00;7.68;;;;;;;16.58;100.00;100347.16;5052826;28;20075;-67
2021/09/09 02:47:34;;;;;;;11.77;7.65;;;;;;;16.74;100.00;100345.81;5053954;28;20384;-67
2021/09/09 02:50:02;;;;;;;14.68;8.20;;;;;;;16.93;100.00;100330.63;5051465;28;20314;-67
2021/09/09 02:52:32;;;;;;;12.88;8.13;;;;;;;16.94;100.00;100335.78;5048154;28;20033;-67
2021/09/09 02:55:01;;;;;;;13.80;8.02;;;;;;;16.94;100.00;100334.94;5055593;28;20045;-67
2021/09/09 02:57:29;;;;;;;12.68;7.45;;;;;;;16.95;100.00;100342.00;5054626;28;20041;-67
2021/09/09 02:59:57;;;;;;;12.30;7.78;;;;;;;16.93;100.00;100346.81;5051053;28;20045;-67
2021/09/09 03:02:25;;;;;;;15.40;7.55;;;;;;;17.35;100.00;100337.16;5050346;28;20421;-67
2021/09/09 03:04:54;;;;;;;13.93;8.57;;;;;;;17.43;100.00;100329.84;5054804;28;20056;-67
2021/09/09 03:07:22;;;;;;;14.65;8.50;;;;;;;17.50;100.00;100323.31;5069103;28;20052;-67
2021/09/09 03:09:51;;;;;;;14.82;8.60;;;;;;;17.50;100.00;100320.63;5049690;28;20044;-67
2021/09/09 03:12:19;;;;;;;13.32;7.70;;;;;;;17.48;100.00;100314.63;5049043;28;20041;-67
2021/09/09 03:14:47;;;;;;;13.32;8.45;;;;;;;17.35;100.00;100322.81;5051805;28;20109;-67
2021/09/09 03:17:15;;;;;;;13.95;8.35;;;;;;;17.17;100.00;100319.03;5049050;28;20067;-67
2021/09/09 03:19:42;;;;;;;13.52;8.38;;;;;;;16.93;100.00;100312.56;5053772;28;20074;-67
2021/09/09 03:22:10;;;;;;;15.20;9.32;;;;;;;16.77;100.00;100310.34;5047913;28;20070;-67
2021/09/09 03:24:38;;;;;;;14.75;8.60;;;;;;;16.72;100.00;100305.59;5050609;28;20037;-67
2021/09/09 03:27:07;;;;;;;17.38;9.73;;;;;;;16.89;100.00;100291.66;5048833;28;20045;-67
2021/09/09 03:29:35;;;;;;;16.67;9.93;;;;;;;16.78;100.00;100285.84;5049786;28;20041;-67
2021/09/09 03:32:04;;;;;;;17.45;9.60;;;;;;;16.69;100.00;100287.16;5045959;28;20259;-67
2021/09/09 03:34:32;;;;;;;17.13;11.40;;;;;;;16.41;100.00;100290.22;5049264;28;20033;-67
2021/09/09 03:36:59;;;;;;;15.80;9.60;;;;;;;16.21;100.00;100307.28;5054493;28;20381;-67
2021/09/09 03:39:27;;;;;;;15.00;8.98;;;;;;;16.28;100.00;100318.84;5047683;28;20049;-67
2021/09/09 03:41:55;;;;;;;16.27;9.98;;;;;;;16.32;100.00;100324.66;5045450;28;20052;-67
2021/09/09 03:44:25;;;;;;;16.77;10.05;;;;;;;16.37;100.00;100332.91;5051581;28;20823;-67
2021/09/09 03:46:53;;;;;;;16.55;9.48;;;;;;;16.46;100.00;100320.88;5047480;28;20044;-67
2021/09/09 03:49:21;;;;;;;16.80;9.52;;;;;;;16.48;100.00;100324.16;5047940;28;20037;-67
2021/09/09 03:51:49;;;;;;;16.30;9.52;;;;;;;16.50;100.00;100326.63;5047072;28;20099;-67
2021/09/09 03:54:17;;;;;;;18.58;9.43;;;;;;;16.62;100.00;100327.63;5046013;28;20311;-67
2021/09/09 03:56:45;;;;;;;18.95;10.68;;;;;;;16.61;100.00;100327.84;5053102;28;20045;-67
2021/09/09 03:59:13;;;;;;;19.83;10.18;;;;;;;16.65;100.00;100329.88;5044037;28;20044;-67
2021/09/09 04:01:42;;;;;;;17.25;9.88;;;;;;;16.50;100.00;100332.88;5048202;28;20044;-67
2021/09/09 04:04:10;;;;;;;15.35;9.80;;;;;;;16.46;100.00;100337.03;5050370;28;20455;-67
2021/09/09 04:06:38;;;;;;;16.00;10.32;;;;;;;16.44;100.00;100331.00;5046376;28;20040;-67
2021/09/09 04:09:06;;;;;;;16.48;9.60;;;;;;;16.52;100.00;100338.03;5047735;28;20421;-67
2021/09/09 04:11:36;;;;;;;16.23;10.02;;;;;;;16.74;100.00;100338.56;5047403;28;20048;-67
2021/09/09 04:14:03;;;;;;;15.50;9.88;;;;;;;16.81;100.00;100342.06;5047937;28;20044;-67
2021/09/09 04:16:31;;;;;;;14.02;9.38;;;;;;;16.89;100.00;100340.19;5049886;28;20061;-67
2021/09/09 04:19:01;;;;;;;15.80;9.73;;;;;;;17.01;100.00;100343.81;5050323;28;20328;-67
2021/09/09 04:21:28;;;;;;;18.67;9.68;;;;;;;16.93;100.00;100336.00;5047828;28;20033;-67
2021/09/09 04:23:58;;;;;;;18.92;10.95;;;;;;;16.79;100.00;100344.13;5048009;28;20036;-67
2021/09/09 04:26:26;;;;;;;18.27;10.13;;;;;;;16.75;100.00;100345.59;5052424;28;20313;-67
2021/09/09 04:28:54;;;;;;;19.70;10.93;;;;;;;16.81;100.00;100352.00;5046189;28;20049;-67
2021/09/09 04:31:22;;;;;;;16.83;10.98;;;;;;;17.08;100.00;100358.13;5040198;28;20099;-67
2021/09/09 04:33:50;;;;;;;17.42;11.23;;;;;;;17.03;100.00;100360.63;5045211;28;20361;-67
2021/09/09 04:36:19;;;;;;;16.63;11.48;;;;;;;17.12;100.00;100356.63;5046326;28;20041;-67
2021/09/09 04:38:47;;;;;;;19.73;11.02;;;;;;;17.31;100.00;100356.69;5046452;28;20375;-67
2021/09/09 04:41:16;;;;;;;18.85;11.18;;;;;;;17.42;100.00;100353.28;5043986;28;20571;-67
2021/09/09 04:43:44;;;;;;;18.08;11.38;;;;;;;17.40;100.00;100343.78;5051408;28;20040;-67
2021/09/09 04:46:12;;;;;;;18.77;11.90;;;;;;;17.35;100.00;100333.63;5048487;28;20049;-67
2021/09/09 04:48:40;;;;;;;19.90;11.68;;;;;;;17.20;100.00;100332.06;5047446;28;20040;-67
2021/09/09 04:51:09;;;;;;;19.65;11.82;;;;;;;17.08;100.00;100350.03;5049516;28;20044;-67
2021/09/09 04:53:38;;;;;;;21.30;12.70;;;;;;;17.08;100.00;100360.81;5047087;28;20064;-68
2021/09/09 04:56:06;;;;;;;24.45;13.15;;;;;;;17.10;100.00;100364.13;5048273;28;20048;-68
2021/09/09 04:58:34;;;;;;;19.70;12.02;;;;;;;17.31;100.00;100357.53;5047854;28;20092;-68
2021/09/09 05:01:02;;;;;;;21.45;12.15;;;;;;;17.26;100.00;100343.06;5042453;28;20091;-68
2021/09/09 05:03:30;;;;;;;18.70;12.20;;;;;;;17.47;100.00;100344.56;5044183;28;20128;-68
2021/09/09 05:06:00;;;;;;;20.83;12.60;;;;;;;17.31;100.00;100343.19;5047815;28;20345;-68
2021/09/09 05:08:27;;;;;;;22.75;13.25;;;;;;;17.18;100.00;100349.53;5049020;28;20048;-68
2021/09/09 05:10:57;;;;;;;22.80;12.23;;;;;;;17.04;100.00;100348.81;5041588;28;20045;-68
2021/09/09 05:13:25;;;;;;;20.88;12.23;;;;;;;17.08;100.00;100355.44;5046103;28;20052;-68
2021/09/09 05:15:52;;;;;;;20.85;11.90;;;;;;;17.14;100.00;100353.72;5049689;28;20075;-68
2021/09/09 05:18:20;;;;;;;20.35;12.38;;;;;;;17.05;100.00;100353.13;5044294;28;20107;-68
2021/09/09 05:20:48;;;;;;;20.52;12.75;;;;;;;17.17;100.00;100348.69;5042073;28;20822;-68
2021/09/09 05:23:20;;;;;;;22.30;12.95;;;;;;;17.17;100.00;100342.50;5052166;28;20045;-68
2021/09/09 05:25:47;;;;;;;21.25;13.68;;;;;;;17.10;100.00;100342.53;5044980;28;20418;-68
2021/09/09 05:28:17;;;;;;;22.60;13.38;;;;;;;17.15;100.00;100350.81;5049491;28;20044;-68
2021/09/09 05:30:45;;;;;;;22.83;12.43;;;;;;;17.18;100.00;100363.84;5041722;28;20854;-68
2021/09/09 05:33:13;;;;;;;23.52;14.35;;;;;;;17.24;100.00;100355.91;5050151;28;20049;-68
2021/09/09 05:35:43;;;;;;;23.25;13.07;;;;;;;17.36;100.00;100354.19;5051314;28;20041;-68
2021/09/09 05:38:10;;;;;;;21.17;13.65;;;;;;;17.33;100.00;100377.03;5041351;28;20049;-68
2021/09/09 05:40:38;;;;;;;22.38;13.20;;;;;;;17.42;100.00;100372.19;5045747;28;20048;-68
2021/09/09 05:43:06;;;;;;;22.38;13.15;;;;;;;17.44;100.00;100370.09;5044824;28;20110;-68
2021/09/09 05:45:35;;;;;;;26.02;13.57;;;;;;;17.45;100.00;100366.38;5043142;28;20311;-68
2021/09/09 05:48:04;;;;;;;21.35;14.25;;;;;;;17.50;100.00;100369.22;5048551;28;20052;-68
2021/09/09 05:50:32;;;;;;;22.13;13.63;;;;;;;17.69;100.00;100367.41;5038465;28;20041;-68
2021/09/09 05:53:00;;;;;;;20.30;12.85;;;;;;;17.50;100.00;100369.22;5044330;28;20049;-68
2021/09/09 05:55:28;;;;;;;20.75;13.13;;;;;;;17.59;100.00;100369.75;5043825;28;20045;-68
2021/09/09 05:57:56;;;;;;;21.52;12.52;;;;;;;17.74;100.00;100380.25;5046404;28;20048;-68
2021/09/09 06:00:24;;;;;;;26.63;13.52;;;;;;;17.73;100.00;100387.53;5046922;28;20106;-68
2021/09/09 06:02:53;;;;;;;21.60;12.68;;;;;;;17.79;100.00;100380.41;5040823;28;20049;-68
2021/09/09 06:05:22;;;;;;;24.80;13.23;;;;;;;17.88;100.00;100386.34;5044110;28;20048;-68
2021/09/09 06:07:50;;;;;;;18.65;12.55;;;;;;;17.99;100.00;100387.50;5046140;28;20045;-68
2021/09/09 06:10:18;;;;;;;19.65;12.30;;;;;;;18.08;100.00;100378.09;5046261;28;20056;-68
2021/09/09 06:12:46;;;;;;;17.35;11.48;;;;;;;17.93;100.00;100373.03;5041957;28;20346;-68
2021/09/09 06:15:16;;;;;;;21.80;12.45;;;;;;;17.85;100.00;100387.63;5043837;28;20469;-68
2021/09/09 06:17:44;;;;;;;19.52;11.75;;;;;;;17.97;100.00;100392.31;5044736;28;20346;-68
2021/09/09 06:20:15;;;;;;;22.33;13.02;;;;;;;18.00;100.00;100389.19;5041707;28;20052;-68
2021/09/09 06:22:43;;;;;;;20.13;13.07;;;;;;;18.10;100.00;100394.06;5049745;28;20037;-68
2021/09/09 06:25:11;;;;;;;18.70;11.88;;;;;;;18.45;100.00;100394.31;5044799;28;20033;-69
2021/09/09 06:27:39;;;;;;;20.40;12.10;;;;;;;18.50;100.00;100391.78;5047616;28;20041;-68
2021/09/09 06:30:08;;;;;;;20.70;10.88;;;;;;;18.64;100.00;100391.59;5042559;28;20041;-68
2021/09/09 06:32:37;;;;;;;19.17;11.60;;;;;;;18.69;100.00;100391.75;5042143;28;20353;-68
2021/09/09 06:35:06;;;;;;;16.73;11.38;;;;;;;18.85;100.00;100391.09;5046261;28;20037;-68
2021/09/09 06:37:35;;;;;;;21.10;11.40;;;;;;;18.54;100.00;100387.56;5045780;28;20098;-68
2021/09/09 06:40:03;;;;;;;20.33;12.23;;;;;;;18.64;100.00;100391.59;5046948;28;20099;-68
2021/09/09 06:42:32;;;;;;;19.42;11.80;;;;;;;18.85;100.00;100390.28;5045206;28;20040;-68
2021/09/09 06:45:00;;;;;;;21.50;11.40;;;;;;;18.74;100.00;100384.59;5044519;28;21237;-68
2021/09/09 06:47:27;;;;;;;17.48;11.10;;;;;;;19.69;100.00;100392.19;5050482;28;20048;-68
2021/09/09 06:49:55;;;;;;;17.48;10.63;;;;;;;20.35;100.00;100375.84;5045323;28;20131;-69
2021/09/09 06:52:23;;;;;;;18.23;10.88;;;;;;;20.37;100.00;100368.28;5046593;28;20326;-69
2021/09/09 06:54:52;;;;;;;15.88;9.82;;;;;;;20.11;100.00;100365.84;5045339;28;20095;-69
2021/09/09 06:57:20;;;;;;;16.08;9.80;;;;;;;20.29;100.00;100364.06;5043594;28;20263;-70
2021/09/09 06:59:48;;;;;;;16.63;10.25;;;;;;;20.08;100.00;100355.47;5047630;28;20481;-69
2021/09/09 07:02:16;;;;;;;16.20;10.35;;;;;;;20.61;100.00;100364.47;5041255;28;20102;-69
2021/09/09 07:04:44;;;;;;;17.70;9.90;;;;;;;20.80;100.00;100364.31;5050200;28;20117;-69
2021/09/09 07:07:12;;;;;;;17.13;10.25;;;;;;;20.22;100.00;100366.09;5048708;28;20041;-69
2021/09/09 07:09:40;;;;;;;15.82;9.93;;;;;;;21.39;100.00;100369.44;5043926;28;20056;-69
2021/09/09 07:12:09;;;;;;;14.48;9.60;;;;;;;21.81;100.00;100351.91;5047134;28;20048;-68
2021/09/09 07:14:37;;;;;;;15.25;9.95;;;;;;;21.53;100.00;100342.78;5045137;28;20368;-68
2021/09/09 07:17:05;;;;;;;13.23;9.10;;;;;;;20.95;100.00;100345.59;5049134;28;20441;-68
2021/09/09 07:19:33;;;;;;;14.10;8.77;;;;;;;21.04;100.00;100350.63;5050990;28;20048;-68
2021/09/09 07:22:01;;;;;;;15.20;9.32;;;;;;;21.17;100.00;100354.94;5043272;28;21075;-68
2021/09/09 07:24:28;;;;;;;13.98;8.82;;;;;;;21.75;100.00;100348.28;5044923;28;20718;-69
2021/09/09 07:26:56;;;;;;;13.70;9.00;;;;;;;21.49;100.00;100358.72;5046602;28;20049;-69
2021/09/09 07:29:26;;;;;;;13.20;8.02;;;;;;;21.72;100.00;100350.66;5050891;28;20052;-69
2021/09/09 07:31:54;;;;;;;13.93;8.75;;;;;;;20.95;100.00;100352.91;5045696;28;20663;-68
2021/09/09 07:34:22;;;;;;;18.02;9.30;;;;;;;21.42;100.00;100370.81;5049251;28;20040;-69
2021/09/09 07:36:50;;;;;;;14.02;8.02;;;;;;;22.18;100.00;100373.06;5050466;28;20584;-69
2021/09/09 07:39:18;;;;;;;13.77;8.20;;;;;;;21.50;100.00;100384.00;5046438;28;20052;-68
2021/09/09 07:41:46;;;;;;;13.52;8.20;;;;;;;21.94;100.00;100386.06;5050806;28;20359;-69
2021/09/09 07:44:14;;;;;;;12.50;7.53;;;;;;;22.04;100.00;100379.97;5044281;28;20047;-68
2021/09/09 07:46:43;;;;;;;16.52;8.27;;;;;;;21.73;100.00;100379.50;5053344;28;20052;-69
2021/09/09 07:49:15;;;;;;;11.00;7.38;;;;;;;21.74;100.00;100381.16;5046790;28;20353;-68
2021/09/09 07:51:43;;;;;;;16.50;9.38;;;;;;;21.46;100.00;100386.38;5042395;28;20033;-68
2021/09/09 07:54:11;;;;;;;12.07;7.72;;;;;;;22.60;100.00;100385.34;5048270;28;20055;-68
2021/09/09 07:56:39;;;;;;;15.25;8.85;;;;;;;22.28;100.00;100391.44;5050314;28;20052;-69
2021/09/09 07:59:07;;;;;;;12.82;9.05;;;;;;;22.29;100.00;100396.63;5049610;28;20368;-68
2021/09/09 08:01:34;;;;;;;18.13;8.45;;;;;;;22.92;100.00;100398.22;5045732;28;20048;-68
2021/09/09 08:04:04;;;;;;;14.73;8.45;;;;;;;21.82;100.00;100403.28;5048062;28;20122;-68
2021/09/09 08:06:33;;;;;;;15.00;9.27;;;;;;;21.78;100.00;100412.19;5051019;28;20076;-68
2021/09/09 08:09:00;;;;;;;14.48;8.60;;;;;;;22.21;100.00;100413.34;5046322;28;20094;-68
2021/09/09 08:11:29;;;;;;;16.20;8.63;;;;;;;21.97;100.00;100420.91;5047012;28;20048;-68
2021/09/09 08:13:57;;;;;;;17.00;8.18;;;;;;;22.56;100.00;100404.06;5046070;28;20040;-68
2021/09/09 08:16:25;;;;;;;13.77;8.50;;;;;;;22.62;100.00;100415.84;5049026;28;20061;-68
2021/09/09 08:18:53;;;;;;;14.77;9.65;;;;;;;22.32;100.00;100412.44;5047341;28;20130;-68
2021/09/09 08:21:22;;;;;;;15.38;9.27;;;;;;;22.29;100.00;100428.44;5045822;28;20255;-68
2021/09/09 08:23:50;;;;;;;13.00;8.13;;;;;;;22.84;100.00;100421.28;5055814;28;20045;-68
2021/09/09 08:26:18;;;;;;;15.00;8.90;;;;;;;21.93;100.00;100423.31;5045231;28;20099;-68
2021/09/09 08:28:46;;;;;;;13.27;8.05;;;;;;;23.40;100.00;100417.53;5045027;28;20045;-68
2021/09/09 08:31:14;;;;;;;15.25;8.63;;;;;;;22.49;100.00;100420.56;5044754;28;20363;-68
2021/09/09 08:33:45;;;;;;;12.23;8.00;;;;;;;23.15;100.00;100419.75;5048621;28;20037;-68
2021/09/09 08:36:15;;;;;;;12.88;7.32;;;;;;;23.29;100.00;100412.00;5047392;28;20045;-68
2021/09/09 08:38:44;;;;;;;15.73;8.32;;;;;;;22.27;100.00;100417.81;5046647;28;20245;-68
2021/09/09 08:41:12;;;;;;;11.27;7.28;;;;;;;23.15;100.00;100417.03;5042925;28;20052;-69
2021/09/09 08:43:40;;;;;;;15.23;8.32;;;;;;;23.73;100.00;100413.72;5046770;28;20079;-68
2021/09/09 08:46:11;;;;;;;13.73;7.40;;;;;;;24.23;100.00;100409.72;5046907;28;20052;-68
2021/09/09 08:48:40;;;;;;;13.05;7.50;;;;;;;23.33;100.00;100418.56;5052179;28;20134;-69
2021/09/09 08:51:08;;;;;;;11.38;6.40;;;;;;;24.19;100.00;100424.16;5044251;28;20558;-68
2021/09/09 08:53:37;;;;;;;11.40;6.43;;;;;;;24.07;100.00;100410.69;5044472;28;20076;-68
2021/09/09 08:56:06;;;;;;;14.00;6.88;;;;;;;24.31;100.00;100400.22;5049003;28;20044;-69
2021/09/09 08:58:36;;;;;;;11.88;6.57;;;;;;;24.74;100.00;100398.22;5049256;28;20041;-68
2021/09/09 09:01:06;;;;;;;10.35;6.07;;;;;;;24.08;100.00;100406.88;5043484;28;20095;-68
2021/09/09 09:03:48;;;;;;;8.98;5.10;;;;;;;23.96;100.00;100412.56;5047496;28;20079;-70
2021/09/09 09:06:36;;;;;;;13.80;5.60;;;;;;;22.94;100.00;100429.56;5045400;28;20481;-68
2021/09/09 09:09:08;;;;;;;11.60;5.05;;;;;;;22.62;100.00;100424.00;5046232;28;20041;-68
2021/09/09 09:11:40;;;;;;;10.65;5.78;;;;;;;23.07;100.00;100419.34;5044534;28;20044;-68
2021/09/09 09:14:09;;;;;;;11.10;6.10;;;;;;;23.21;100.00;100412.44;5046086;28;20041;-68
2021/09/09 09:16:37;;;;;;;10.18;5.95;;;;;;;23.10;100.00;100414.19;5043423;28;20095;-68
2021/09/09 09:19:10;;;;;;;9.50;6.22;;;;;;;23.54;100.00;100421.47;5046534;28;20053;-69
2021/09/09 09:21:42;;;;;;;10.48;6.03;;;;;;;23.77;100.00;100416.75;5045748;28;20045;-68
2021/09/09 09:24:09;;;;;;;10.88;6.35;;;;;;;24.21;100.00;100416.50;5046969;28;20041;-68
2021/09/09 09:26:39;;;;;;;9.07;5.45;;;;;;;24.39;100.00;100413.34;5048135;28;20029;-68
2021/09/09 09:29:07;;;;;;;7.53;5.88;;;;;;;24.49;100.00;100414.47;5046050;28;20040;-69
2021/09/09 09:31:36;;;;;;;10.10;5.68;;;;;;;24.24;100.00;100419.53;5045227;28;20059;-68
2021/09/09 09:34:08;;;;;;;8.82;4.97;;;;;;;25.07;100.00;100409.78;5046354;28;20094;-69
2021/09/09 09:36:37;;;;;;;10.13;5.30;;;;;;;24.04;100.00;100427.59;5046548;28;20045;-68
2021/09/09 09:39:19;;;;;;;6.88;4.70;;;;;;;26.17;100.00;100425.97;5052120;28;20048;-68
2021/09/09 09:42:00;;;;;;;7.45;4.70;;;;;;;26.62;100.00;100417.88;5045067;28;20313;-68
2021/09/09 09:44:28;;;;;;;5.85;4.80;;;;;;;25.86;100.00;100417.78;5043816;28;20048;-68
2021/09/09 09:47:07;;;;;;;8.85;5.30;;;;;;;26.86;100.00;100417.25;5046337;28;20045;-67
2021/09/09 09:49:37;;;;;;;6.53;4.75;;;;;;;27.95;100.00;100412.63;5045719;28;20098;-69
2021/09/09 09:52:06;;;;;;;8.40;5.13;;;;;;;26.83;100.00;100417.81;5045328;28;20131;-68
2021/09/09 09:54:35;;;;;;;9.38;5.97;;;;;;;25.00;100.00;100408.41;5048482;28;20484;-69
2021/09/09 09:57:04;;;;;;;13.88;7.15;;;;;;;25.03;100.00;100411.41;5044319;28;20044;-68
2021/09/09 09:59:33;;;;;;;10.63;6.40;;;;;;;25.50;100.00;100406.84;5041388;28;20049;-68
2021/09/09 10:02:01;;;;;;;10.55;6.10;;;;;;;25.61;100.00;100410.41;5045055;28;20055;-68
2021/09/09 10:04:29;;;;;;;9.57;6.03;;;;;;;25.58;100.00;100410.97;5047384;28;20344;-68
2021/09/09 10:06:59;;;;;;;10.27;5.97;;;;;;;25.89;100.00;100410.94;5046941;28;20396;-68
2021/09/09 10:09:28;;;;;;;9.18;6.03;;;;;;;24.95;100.00;100420.16;5049990;28;20049;-68
2021/09/09 10:11:56;;;;;;;8.95;5.40;;;;;;;24.29;100.00;100413.28;5043958;28;20142;-68
2021/09/09 10:14:27;;;;;;;8.85;5.68;;;;;;;24.51;100.00;100412.28;5045082;28;20457;-68
2021/09/09 10:16:57;;;;;;;10.20;5.03;;;;;;;26.30;100.00;100413.63;5046335;28;20045;-68
2021/09/09 10:19:28;;;;;;;10.98;7.05;;;;;;;26.01;100.00;100410.69;5049407;28;20051;-68
2021/09/09 10:22:07;;;;;;;9.48;6.30;;;;;;;27.01;100.00;100408.94;5045740;28;20503;-69
2021/09/09 10:24:37;;;;;;;9.32;6.35;;;;;;;27.37;100.00;100416.16;5044102;28;20045;-68
2021/09/09 10:27:20;;;;;;;12.27;7.70;;;;;;;26.14;100.00;100412.84;5043173;28;20453;-68
2021/09/09 10:29:53;;;;;;;13.10;7.05;;;;;;;24.90;100.00;100411.94;5043954;28;20041;-68
2021/09/09 10:32:57;;;;;;;11.52;6.18;;;;;;;25.00;100.00;100417.41;5037969;28;20048;-68
2021/09/09 10:35:33;;;;;;;14.07;6.70;;;;;;;25.68;100.00;100416.44;5038032;28;20053;-68
2021/09/09 10:38:30;;;;;;;8.60;5.20;;;;;;;26.80;100.00;100416.47;5042113;28;20304;-68
2021/09/09 10:41:00;;;;;;;10.05;5.95;;;;;;;26.85;100.00;100419.19;5046494;28;20044;-68
2021/09/09 10:43:48;;;;;;;10.70;6.05;;;;;;;27.63;100.00;100405.81;5048874;28;20056;-69
2021/09/09 10:46:18;;;;;;;9.68;6.13;;;;;;;27.93;100.00;100423.09;5051407;28;20041;-68
2021/09/09 10:49:04;;;;;;;11.93;5.45;;;;;;;27.05;100.00;100420.97;5047225;28;20425;-68
2021/09/09 10:51:33;;;;;;;9.35;5.90;;;;;;;26.54;100.00;100421.19;5046537;28;20041;-68
2021/09/09 10:54:02;;;;;;;8.60;5.63;;;;;;;26.10;100.00;100426.25;5048947;28;20082;-68
2021/09/09 10:56:34;;;;;;;6.80;4.65;;;;;;;27.78;100.00;100413.06;5046465;28;20111;-69
2021/09/09 10:59:14;;;;;;;7.60;4.20;;;;;;;26.50;100.00;100420.94;5048719;28;20106;-68
2021/09/09 11:01:45;;;;;;;6.43;4.03;;;;;;;25.39;100.00;100418.88;5047794;28;20091;-68
2021/09/09 11:04:30;;;;;;;9.18;3.95;;;;;;;26.57;100.00;100415.19;5049561;28;20502;-68
2021/09/09 11:06:59;;;;;;;6.20;3.80;;;;;;;26.48;100.00;100422.31;5048540;28;20251;-68
2021/09/09 11:09:28;;;;;;;8.65;4.18;;;;;;;24.91;100.00;100413.59;5049183;28;20382;-68
2021/09/09 11:11:57;;;;;;;6.35;3.42;;;;;;;26.62;100.00;100418.72;5046654;28;20094;-68
2021/09/09 11:14:26;;;;;;;12.25;5.50;;;;;;;27.18;100.00;100414.06;5042582;28;20033;-68
2021/09/09 11:16:55;;;;;;;3.65;2.97;;;;;;;27.52;100.00;100412.47;5048522;28;20063;-68
2021/09/09 11:19:27;;;;;;;5.63;3.22;;;;;;;27.78;100.00;100411.13;5047819;28;20049;-68